Time;durP1;ratioP1;P1;durP2;ratioP2;P2;SDS_P1;SDS_P2;PMS_P1;PMS_P2;Temp;Humidity;BMP_temperature;BMP_pressure;BME280_temperature;BME280_humidity;BME280_pressure;Samples;Min_cycle;Max_cycle;Signal;HPM_P1;HPM_P2
2022/09/27 00:01:10;;;;;;;2.42;1.45;;;;;;;12.82;100.00;98391.41;5047813;28;20415;-67
2022/09/27 00:03:36;;;;;;;1.48;1.08;;;;;;;12.81;100.00;98377.25;5061548;28;20020;-67
2022/09/27 00:06:33;;;;;;;3.80;1.30;;;;;;;12.90;100.00;98389.94;5087753;28;20024;-67
2022/09/27 00:08:58;;;;;;;2.00;1.13;;;;;;;12.86;100.00;98383.13;5087595;28;20028;-67
2022/09/27 00:11:32;;;;;;;5.60;1.40;;;;;;;12.83;100.00;98388.63;5087931;28;20034;-67
2022/09/27 00:13:58;;;;;;;3.78;1.45;;;;;;;12.87;100.00;98381.28;5075937;28;20098;-67
2022/09/27 00:16:26;;;;;;;3.20;2.15;;;;;;;12.88;100.00;98370.50;5048807;28;20059;-67
2022/09/27 00:18:52;;;;;;;1.73;1.25;;;;;;;12.91;100.00;98375.66;5065849;28;20037;-67
2022/09/27 00:21:18;;;;;;;2.05;1.38;;;;;;;12.96;100.00;98383.34;5069305;28;20043;-67
2022/09/27 00:23:43;;;;;;;2.03;1.13;;;;;;;12.93;100.00;98372.88;5068917;28;20025;-67
2022/09/27 00:26:11;;;;;;;1.98;1.13;;;;;;;12.96;100.00;98376.19;5068577;28;20562;-68
2022/09/27 00:28:37;;;;;;;2.13;1.45;;;;;;;13.05;100.00;98372.94;5068842;28;20111;-67
2022/09/27 00:31:03;;;;;;;4.00;1.50;;;;;;;13.09;100.00;98378.91;5069233;28;20436;-67
2022/09/27 00:33:29;;;;;;;2.45;1.65;;;;;;;13.09;100.00;98379.78;5068567;28;20024;-67
2022/09/27 00:35:54;;;;;;;3.33;1.40;;;;;;;13.12;100.00;98373.34;5052365;28;20068;-67
2022/09/27 00:38:20;;;;;;;1.98;1.33;;;;;;;13.12;100.00;98371.56;5048828;28;20138;-67
2022/09/27 00:40:46;;;;;;;2.67;1.00;;;;;;;13.15;100.00;98368.66;5047546;28;20063;-67
2022/09/27 00:43:16;;;;;;;2.05;1.20;;;;;;;13.11;100.00;98372.50;5049289;28;20044;-67
2022/09/27 00:45:46;;;;;;;1.42;1.05;;;;;;;13.11;100.00;98369.00;5059688;28;20036;-67
2022/09/27 00:48:17;;;;;;;3.42;1.65;;;;;;;13.11;100.00;98367.16;5068740;28;20079;-68
2022/09/27 00:50:45;;;;;;;2.83;1.50;;;;;;;13.16;100.00;98381.03;5068564;28;20036;-68
2022/09/27 00:53:32;;;;;;;2.45;1.27;;;;;;;13.15;100.00;98383.81;5066502;28;20029;-67
2022/09/27 00:56:01;;;;;;;3.13;1.50;;;;;;;13.17;100.00;98382.78;5068054;28;20016;-67
2022/09/27 00:58:34;;;;;;;2.55;1.30;;;;;;;13.13;100.00;98386.59;5067388;28;20059;-67
2022/09/27 01:01:04;;;;;;;1.92;1.10;;;;;;;13.22;100.00;98401.13;5068270;28;20031;-67
2022/09/27 01:04:04;;;;;;;5.30;1.52;;;;;;;13.24;100.00;98409.91;5062737;28;20024;-67
2022/09/27 01:06:30;;;;;;;2.58;1.23;;;;;;;13.20;100.00;98419.94;5087799;28;20127;-66
2022/09/27 01:08:55;;;;;;;3.25;1.50;;;;;;;13.20;100.00;98419.06;5089014;28;20024;-67
2022/09/27 01:11:54;;;;;;;2.78;1.60;;;;;;;13.21;100.00;98436.81;5088680;28;20020;-67
2022/09/27 01:14:35;;;;;;;3.88;1.20;;;;;;;13.13;100.00;98434.66;5071199;28;20027;-68
2022/09/27 01:17:31;;;;;;;3.17;1.10;;;;;;;13.10;100.00;98432.19;5052269;28;20449;-68
2022/09/27 01:20:11;;;;;;;2.13;1.17;;;;;;;13.06;100.00;98428.00;5052306;28;20111;-68
2022/09/27 01:22:43;;;;;;;3.33;1.05;;;;;;;12.95;100.00;98430.53;5051843;28;20421;-67
2022/09/27 01:25:27;;;;;;;3.05;1.30;;;;;;;12.89;100.00;98436.28;5052378;28;20017;-67
2022/09/27 01:28:00;;;;;;;1.25;1.00;;;;;;;12.87;100.00;98445.34;5052040;28;20452;-67
2022/09/27 01:30:50;;;;;;;1.73;1.10;;;;;;;12.84;100.00;98441.06;5052071;28;20108;-67
2022/09/27 01:33:50;;;;;;;2.53;1.10;;;;;;;12.89;100.00;98444.28;5051666;28;20411;-67
2022/09/27 01:36:39;;;;;;;1.20;0.98;;;;;;;12.85;100.00;98444.59;5050814;28;20041;-67
2022/09/27 01:39:13;;;;;;;1.73;1.08;;;;;;;12.83;100.00;98442.00;5051469;28;20049;-66
2022/09/27 01:41:52;;;;;;;1.55;1.00;;;;;;;12.82;100.00;98445.66;5052108;28;20020;-67
2022/09/27 01:44:34;;;;;;;2.35;1.30;;;;;;;12.84;100.00;98442.88;5051391;28;20057;-67
2022/09/27 01:47:34;;;;;;;2.67;1.20;;;;;;;12.84;100.00;98454.41;5051500;28;20112;-67
2022/09/27 01:50:05;;;;;;;2.97;1.27;;;;;;;12.86;100.00;98449.84;5051013;28;20047;-67
2022/09/27 01:52:37;;;;;;;4.05;1.38;;;;;;;12.82;100.00;98450.13;5051692;28;20025;-67
2022/09/27 01:55:06;;;;;;;2.28;1.02;;;;;;;12.87;100.00;98456.88;5051063;28;20063;-67
2022/09/27 01:57:39;;;;;;;6.97;1.60;;;;;;;12.90;100.00;98464.66;5051215;28;20029;-67
2022/09/27 02:00:08;;;;;;;2.35;1.50;;;;;;;12.86;100.00;98456.97;5051648;28;20024;-67
2022/09/27 02:02:43;;;;;;;4.80;1.40;;;;;;;12.82;100.00;98460.78;5051205;28;20025;-66
2022/09/27 02:05:13;;;;;;;6.38;1.67;;;;;;;12.77;100.00;98457.56;5051672;28;20025;-67
2022/09/27 02:07:50;;;;;;;4.70;1.75;;;;;;;12.79;100.00;98461.88;5051731;28;20032;-67
2022/09/27 02:10:21;;;;;;;6.93;2.00;;;;;;;12.74;100.00;98465.78;5051652;28;20037;-67
2022/09/27 02:13:21;;;;;;;7.90;1.60;;;;;;;12.78;100.00;98461.97;5050114;28;20029;-67
2022/09/27 02:16:24;;;;;;;5.90;1.55;;;;;;;12.79;100.00;98461.88;5065625;28;20041;-67
2022/09/27 02:18:58;;;;;;;6.45;1.80;;;;;;;12.75;100.00;98465.69;5059839;28;20020;-67
2022/09/27 02:21:32;;;;;;;6.38;1.85;;;;;;;12.79;100.00;98466.34;5070997;28;20032;-67
2022/09/27 02:24:02;;;;;;;3.08;1.20;;;;;;;12.79;100.00;98467.19;5070843;28;20028;-66
2022/09/27 02:26:41;;;;;;;3.75;1.88;;;;;;;12.84;100.00;98472.22;5070123;28;20043;-67
2022/09/27 02:29:31;;;;;;;4.70;1.60;;;;;;;12.80;100.00;98474.25;5060181;28;20408;-67
2022/09/27 02:31:56;;;;;;;5.45;1.80;;;;;;;12.77;100.00;98482.44;5049507;28;20081;-67
2022/09/27 02:34:25;;;;;;;6.30;1.73;;;;;;;12.72;100.00;98463.22;5050913;28;20092;-67
2022/09/27 02:36:52;;;;;;;6.07;2.20;;;;;;;12.86;100.00;98484.53;5050058;28;20074;-67
2022/09/27 02:39:18;;;;;;;6.28;1.75;;;;;;;12.85;100.00;98481.97;5050806;28;20063;-67
2022/09/27 02:41:44;;;;;;;3.35;1.58;;;;;;;12.87;100.00;98496.03;5050740;28;20025;-67
2022/09/27 02:44:13;;;;;;;4.78;1.88;;;;;;;12.82;100.00;98480.34;5058604;28;20380;-67
2022/09/27 02:47:12;;;;;;;3.38;1.50;;;;;;;12.87;100.00;98496.91;5063931;28;20013;-67
2022/09/27 02:49:53;;;;;;;3.20;1.60;;;;;;;12.86;100.00;98500.53;5056505;28;20035;-67
2022/09/27 02:52:37;;;;;;;5.43;1.75;;;;;;;12.82;100.00;98499.00;5050690;28;20051;-65
2022/09/27 02:55:31;;;;;;;2.72;1.38;;;;;;;12.78;100.00;98497.50;5051526;28;20119;-64
2022/09/27 02:58:25;;;;;;;3.92;1.80;;;;;;;12.82;100.00;98501.69;5051212;28;20041;-66
2022/09/27 03:00:56;;;;;;;7.85;2.10;;;;;;;12.80;100.00;98503.59;5050705;28;20459;-65
2022/09/27 03:03:39;;;;;;;4.78;2.00;;;;;;;12.81;100.00;98508.00;5062715;28;20027;-65
2022/09/27 03:06:10;;;;;;;3.53;1.55;;;;;;;12.80;100.00;98506.25;5090387;28;20053;-67
2022/09/27 03:08:37;;;;;;;4.20;1.80;;;;;;;12.77;100.00;98506.47;5090636;28;20044;-67
2022/09/27 03:11:03;;;;;;;8.52;2.20;;;;;;;12.79;100.00;98504.56;5090366;28;20111;-67
2022/09/27 03:13:29;;;;;;;4.25;2.00;;;;;;;12.74;100.00;98500.47;5086165;28;20576;-67
2022/09/27 03:15:54;;;;;;;5.60;2.20;;;;;;;12.76;100.00;98503.91;5049729;28;20032;-66
2022/09/27 03:18:20;;;;;;;7.32;2.22;;;;;;;12.64;100.00;98494.88;5049758;28;20078;-67
2022/09/27 03:20:45;;;;;;;5.47;2.05;;;;;;;12.69;100.00;98508.78;5049868;28;20029;-67
2022/09/27 03:23:11;;;;;;;5.82;2.50;;;;;;;12.72;100.00;98513.91;5050679;28;20017;-67
2022/09/27 03:25:36;;;;;;;6.53;1.98;;;;;;;12.62;100.00;98501.28;5049678;28;20514;-67
2022/09/27 03:28:02;;;;;;;7.85;1.85;;;;;;;12.65;100.00;98517.09;5049872;28;20041;-66
2022/09/27 03:30:28;;;;;;;3.55;1.63;;;;;;;12.60;100.00;98508.53;5050210;28;20106;-67
2022/09/27 03:32:53;;;;;;;4.05;2.10;;;;;;;12.57;100.00;98514.91;5049851;28;20033;-66
2022/09/27 03:35:18;;;;;;;12.30;2.75;;;;;;;12.62;100.00;98512.78;5049702;28;20021;-67
2022/09/27 03:37:46;;;;;;;6.03;1.58;;;;;;;12.64;100.00;98512.69;5049319;28;20506;-67
2022/09/27 03:40:11;;;;;;;4.50;1.67;;;;;;;12.64;100.00;98510.88;5049788;28;20074;-67
2022/09/27 03:42:37;;;;;;;4.95;1.50;;;;;;;12.61;100.00;98513.75;5048526;28;20028;-66
2022/09/27 03:45:03;;;;;;;6.28;1.60;;;;;;;12.55;100.00;98515.97;5047884;28;20033;-66
2022/09/27 03:47:28;;;;;;;2.47;1.10;;;;;;;12.53;100.00;98516.06;5046425;28;20032;-66
2022/09/27 03:49:54;;;;;;;6.30;1.65;;;;;;;12.54;100.00;98514.22;5046235;28;20135;-66
2022/09/27 03:52:19;;;;;;;5.07;1.75;;;;;;;12.60;100.00;98519.19;5046607;28;20451;-66
2022/09/27 03:54:44;;;;;;;5.22;1.42;;;;;;;12.61;100.00;98524.44;5046681;28;20503;-67
2022/09/27 03:57:11;;;;;;;5.40;1.85;;;;;;;12.66;100.00;98529.47;5047333;28;20110;-67
2022/09/27 03:59:36;;;;;;;15.20;2.08;;;;;;;12.66;100.00;98529.47;5047611;28;20495;-66
2022/09/27 04:02:02;;;;;;;4.55;1.40;;;;;;;12.67;100.00;98528.50;5049046;28;20106;-66
2022/09/27 04:04:27;;;;;;;9.30;1.77;;;;;;;12.67;100.00;98540.03;5079302;28;20027;-65
2022/09/27 04:06:53;;;;;;;7.32;1.90;;;;;;;12.54;100.00;98532.91;5089561;28;20027;-66
2022/09/27 04:09:18;;;;;;;6.85;1.52;;;;;;;12.63;100.00;98545.66;5083261;28;20020;-66
2022/09/27 04:11:44;;;;;;;2.22;1.40;;;;;;;12.61;100.00;98551.09;5069463;28;20036;-66
2022/09/27 04:14:11;;;;;;;4.32;1.27;;;;;;;12.53;100.00;98550.75;5062032;28;20385;-66
2022/09/27 04:16:38;;;;;;;5.32;1.48;;;;;;;12.50;100.00;98555.41;5048763;28;20033;-66
2022/09/27 04:19:04;;;;;;;2.90;1.58;;;;;;;12.56;100.00;98555.00;5049277;28;20107;-66
2022/09/27 04:21:29;;;;;;;3.88;1.52;;;;;;;12.44;100.00;98543.31;5055888;28;20029;-67
2022/09/27 04:23:55;;;;;;;6.40;2.47;;;;;;;12.53;100.00;98553.41;5047782;28;20053;-67
2022/09/27 04:26:21;;;;;;;6.75;1.60;;;;;;;12.52;100.00;98549.00;5045948;28;20021;-67
2022/09/27 04:28:46;;;;;;;8.73;1.73;;;;;;;12.48;100.00;98558.16;5048159;28;20079;-67
2022/09/27 04:31:11;;;;;;;3.03;1.67;;;;;;;12.41;100.00;98556.84;5047961;28;20527;-67
2022/09/27 04:33:37;;;;;;;4.07;1.42;;;;;;;12.37;100.00;98557.97;5047624;28;20055;-67
2022/09/27 04:38:47;;;;;;;1.88;1.30;;;;;;;12.32;100.00;98570.72;5049321;28;20532;-66
2022/09/27 04:41:14;;;;;;;2.25;1.13;;;;;;;12.26;100.00;98568.47;5049114;28;20163;-67
2022/09/27 04:43:39;;;;;;;2.90;1.17;;;;;;;12.27;100.00;98572.00;5052634;28;20027;-66
2022/09/27 04:46:05;;;;;;;4.28;1.10;;;;;;;12.23;100.00;98571.31;5068176;28;20029;-66
2022/09/27 04:48:30;;;;;;;3.33;1.30;;;;;;;12.17;100.00;98582.38;5066527;28;20391;-66
2022/09/27 04:51:01;;;;;;;2.55;1.38;;;;;;;12.14;100.00;98582.53;5052878;28;20021;-67
2022/09/27 04:53:28;;;;;;;2.65;1.10;;;;;;;12.15;100.00;98581.59;5052795;28;20045;-67
2022/09/27 04:55:54;;;;;;;3.67;1.13;;;;;;;12.16;100.00;98588.63;5058616;28;20037;-68
2022/09/27 04:58:21;;;;;;;3.33;1.13;;;;;;;12.20;100.00;98592.84;5052371;28;20036;-67
2022/09/27 05:00:47;;;;;;;2.33;1.25;;;;;;;12.17;100.00;98590.38;5052666;28;20087;-67
2022/09/27 05:03:13;;;;;;;1.83;1.10;;;;;;;12.17;100.00;98587.72;5062300;28;20449;-66
2022/09/27 05:05:40;;;;;;;2.15;1.10;;;;;;;12.13;100.00;98599.50;5092744;28;20031;-67
2022/09/27 05:08:06;;;;;;;1.77;1.10;;;;;;;12.11;100.00;98605.88;5092839;28;20098;-67
2022/09/27 05:10:31;;;;;;;2.20;1.17;;;;;;;12.12;100.00;98607.59;5092461;28;20543;-67
2022/09/27 05:12:56;;;;;;;11.00;1.73;;;;;;;12.07;100.00;98599.88;5092909;28;20032;-66
2022/09/27 05:15:22;;;;;;;1.00;0.70;;;;;;;12.11;100.00;98612.06;5056839;28;20101;-66
2022/09/27 05:17:50;;;;;;;4.30;1.00;;;;;;;12.17;100.00;98611.69;5052664;28;20032;-66
2022/09/27 05:20:16;;;;;;;1.13;0.70;;;;;;;12.21;100.00;98620.38;5050683;28;20059;-66
2022/09/27 05:22:41;;;;;;;1.70;0.82;;;;;;;12.16;100.00;98615.28;5052382;28;20048;-67
2022/09/27 05:25:07;;;;;;;2.25;1.00;;;;;;;12.14;100.00;98614.53;5050912;28;20491;-66
2022/09/27 05:27:32;;;;;;;5.38;2.45;;;;;;;12.15;100.00;98618.91;5051752;28;20059;-66
2022/09/27 05:30:00;;;;;;;3.92;1.83;;;;;;;12.16;100.00;98620.63;5052181;28;20507;-66
2022/09/27 05:32:28;;;;;;;8.38;3.60;;;;;;;12.15;100.00;98629.59;5052409;28;20028;-66
2022/09/27 05:34:53;;;;;;;8.32;3.45;;;;;;;12.17;100.00;98633.03;5050426;28;20082;-67
2022/09/27 05:37:19;;;;;;;11.63;4.35;;;;;;;12.20;100.00;98648.81;5051720;28;20112;-66
2022/09/27 05:39:45;;;;;;;3.78;1.42;;;;;;;12.16;100.00;98641.94;5061703;28;20383;-68
2022/09/27 05:42:11;;;;;;;1.83;1.00;;;;;;;12.14;100.00;98654.50;5072200;28;20029;-67
2022/09/27 05:44:38;;;;;;;2.47;1.20;;;;;;;12.12;100.00;98648.44;5060409;28;20056;-66
2022/09/27 05:47:04;;;;;;;4.93;1.63;;;;;;;12.15;100.00;98653.56;5051352;28;20021;-66
2022/09/27 05:49:30;;;;;;;2.10;1.15;;;;;;;12.18;100.00;98661.38;5051655;28;20051;-66
2022/09/27 05:51:56;;;;;;;2.65;1.27;;;;;;;12.15;100.00;98645.56;5051573;28;20365;-66
2022/09/27 05:54:22;;;;;;;7.97;1.40;;;;;;;12.15;100.00;98652.72;5051757;28;20060;-66
2022/09/27 05:56:47;;;;;;;6.32;2.45;;;;;;;12.22;100.00;98662.94;5051022;28;20021;-66
2022/09/27 05:59:13;;;;;;;6.95;2.42;;;;;;;12.19;100.00;98651.59;5051516;28;20499;-66
2022/09/27 06:01:38;;;;;;;7.65;2.33;;;;;;;12.17;100.00;98656.16;5049479;28;20029;-66
2022/09/27 06:04:04;;;;;;;6.88;2.97;;;;;;;12.21;100.00;98671.00;5074608;28;20036;-65
2022/09/27 06:06:30;;;;;;;6.38;1.92;;;;;;;12.20;100.00;98672.81;5070718;28;20066;-66
2022/09/27 06:08:56;;;;;;;3.97;1.80;;;;;;;12.23;100.00;98667.28;5069842;28;20024;-67
2022/09/27 06:11:22;;;;;;;6.60;1.80;;;;;;;12.18;100.00;98661.38;5071419;28;20498;-66
2022/09/27 06:13:47;;;;;;;6.18;1.90;;;;;;;12.30;100.00;98676.66;5067133;28;20111;-66
2022/09/27 06:16:13;;;;;;;3.47;2.35;;;;;;;12.28;100.00;98677.66;5050782;28;20428;-67
2022/09/27 06:18:38;;;;;;;5.40;1.63;;;;;;;12.24;100.00;98682.31;5051115;28;20025;-66
2022/09/27 06:21:05;;;;;;;3.50;1.52;;;;;;;12.17;100.00;98665.00;5050200;28;20057;-65
2022/09/27 06:23:31;;;;;;;2.00;1.10;;;;;;;12.17;100.00;98681.00;5065908;28;20068;-65
2022/09/27 06:26:01;;;;;;;1.17;1.00;;;;;;;12.21;100.00;98677.19;5069616;28;20531;-67
2022/09/27 06:28:26;;;;;;;2.67;1.20;;;;;;;12.23;100.00;98691.28;5070089;28;20024;-66
2022/09/27 06:30:51;;;;;;;2.72;1.05;;;;;;;12.18;100.00;98688.03;5053221;28;20024;-65
2022/09/27 06:33:19;;;;;;;3.13;1.10;;;;;;;12.13;100.00;98695.44;5050316;28;20071;-66
2022/09/27 06:35:45;;;;;;;2.50;1.17;;;;;;;12.06;100.00;98699.41;5050342;28;20029;-66
2022/09/27 06:38:14;;;;;;;2.17;1.15;;;;;;;12.01;100.00;98706.81;5051141;28;20053;-66
2022/09/27 06:40:44;;;;;;;1.83;0.80;;;;;;;12.02;100.00;98713.91;5050958;28;20032;-66
2022/09/27 06:43:11;;;;;;;1.85;1.20;;;;;;;12.07;100.00;98706.47;5051082;28;20108;-67
2022/09/27 06:45:37;;;;;;;2.97;1.98;;;;;;;12.13;100.00;98724.78;5069488;28;20395;-66
2022/09/27 06:48:08;;;;;;;10.63;4.20;;;;;;;12.14;100.00;98723.81;5060269;28;20033;-66
2022/09/27 06:50:35;;;;;;;7.13;2.85;;;;;;;12.17;100.00;98721.00;5058308;28;20044;-65
2022/09/27 06:53:02;;;;;;;3.88;1.92;;;;;;;12.19;100.00;98721.72;5070194;28;20029;-65
2022/09/27 06:55:27;;;;;;;7.45;3.33;;;;;;;12.25;100.00;98720.50;5068532;28;20535;-66
2022/09/27 07:00:38;;;;;;;3.17;1.65;;;;;;;12.23;100.00;98717.06;5060712;28;20040;-65
2022/09/27 07:03:03;;;;;;;3.55;1.60;;;;;;;12.31;100.00;98726.34;5066509;28;20024;-65
2022/09/27 07:05:29;;;;;;;4.45;1.58;;;;;;;12.31;100.00;98742.34;5069889;28;20086;-65
2022/09/27 07:07:56;;;;;;;3.40;1.50;;;;;;;12.25;100.00;98742.72;5063851;28;20051;-66
2022/09/27 07:10:29;;;;;;;2.30;1.30;;;;;;;12.17;100.00;98738.78;5048262;28;20056;-67
2022/09/27 07:12:55;;;;;;;3.35;1.67;;;;;;;12.15;100.00;98738.00;5048125;28;20028;-65
2022/09/27 07:15:22;;;;;;;4.10;1.45;;;;;;;12.16;100.00;98745.91;5057362;28;20032;-66
2022/09/27 07:17:58;;;;;;;3.22;1.77;;;;;;;12.19;100.00;98743.06;5054498;28;20025;-66
2022/09/27 07:20:28;;;;;;;2.92;1.52;;;;;;;12.34;100.00;98746.66;5049687;28;20039;-66
2022/09/27 07:22:54;;;;;;;3.75;1.58;;;;;;;12.24;100.00;98746.31;5049829;28;20033;-66
2022/09/27 07:25:19;;;;;;;4.50;1.70;;;;;;;12.34;100.00;98751.97;5049750;28;20086;-67
2022/09/27 07:27:44;;;;;;;7.63;2.63;;;;;;;12.35;100.00;98749.22;5047796;28;20021;-66
2022/09/27 07:30:11;;;;;;;5.22;2.05;;;;;;;12.31;100.00;98758.34;5052830;28;20032;-65
2022/09/27 07:32:37;;;;;;;3.08;1.95;;;;;;;12.27;100.00;98754.16;5062606;28;20500;-66
2022/09/27 07:35:04;;;;;;;8.65;2.78;;;;;;;12.36;100.00;98760.72;5047679;28;20202;-66
2022/09/27 07:37:33;;;;;;;6.15;2.95;;;;;;;12.31;100.00;98766.34;5047044;28;20036;-67
2022/09/27 07:40:00;;;;;;;10.40;2.88;;;;;;;12.17;100.00;98771.63;5049450;28;20021;-66
2022/09/27 07:42:27;;;;;;;5.57;1.83;;;;;;;12.04;100.00;98759.97;5049824;28;20471;-66
2022/09/27 07:44:54;;;;;;;4.72;1.95;;;;;;;12.06;100.00;98774.03;5063319;28;20087;-66
2022/09/27 07:47:20;;;;;;;4.95;2.00;;;;;;;12.02;100.00;98764.53;5069242;28;20107;-66
2022/09/27 07:49:45;;;;;;;2.80;1.50;;;;;;;11.95;100.00;98749.84;5069730;28;20128;-66
2022/09/27 07:52:10;;;;;;;2.38;1.40;;;;;;;12.03;100.00;98768.03;5067415;28;20031;-66
2022/09/27 07:54:36;;;;;;;3.55;1.60;;;;;;;12.09;100.00;98765.91;5069317;28;20044;-66
2022/09/27 07:57:02;;;;;;;5.05;1.65;;;;;;;12.11;100.00;98771.97;5068805;28;20115;-66
2022/09/27 07:59:28;;;;;;;4.80;1.85;;;;;;;12.05;100.00;98774.13;5068394;28;20483;-66
2022/09/27 08:01:54;;;;;;;5.55;2.20;;;;;;;12.10;100.00;98785.38;5063064;28;20047;-66
2022/09/27 08:04:20;;;;;;;5.30;2.20;;;;;;;12.22;100.00;98785.56;5083526;28;20035;-67
2022/09/27 08:06:46;;;;;;;4.43;2.03;;;;;;;12.39;100.00;98785.41;5075147;28;20033;-66
2022/09/27 08:09:11;;;;;;;2.92;1.98;;;;;;;12.71;100.00;98789.66;5060553;28;20033;-66
2022/09/27 08:11:36;;;;;;;5.97;2.22;;;;;;;13.05;100.00;98781.34;5048351;28;20033;-65
2022/09/27 08:14:03;;;;;;;7.55;2.80;;;;;;;13.43;100.00;98784.25;5053971;28;20024;-66
2022/09/27 08:16:29;;;;;;;6.18;2.55;;;;;;;13.62;100.00;98789.28;5068344;28;20040;-65
2022/09/27 08:18:54;;;;;;;4.18;2.38;;;;;;;13.61;100.00;98788.44;5068810;28;20123;-65
2022/09/27 08:21:19;;;;;;;12.15;2.70;;;;;;;13.74;100.00;98788.53;5068527;28;20415;-66
2022/09/27 08:23:45;;;;;;;5.18;2.05;;;;;;;14.01;99.97;98787.56;5070075;28;20032;-66
2022/09/27 08:26:10;;;;;;;6.10;1.88;;;;;;;14.14;98.29;98787.59;5072895;28;20442;-65
2022/09/27 08:28:36;;;;;;;7.93;2.58;;;;;;;14.28;96.57;98782.25;5073347;28;20491;-66
2022/09/27 08:31:01;;;;;;;6.22;2.22;;;;;;;14.55;96.84;98782.19;5067827;28;20021;-66
2022/09/27 08:33:27;;;;;;;5.13;1.92;;;;;;;14.69;94.97;98779.41;5051776;28;20419;-65
2022/09/27 08:35:52;;;;;;;5.13;2.47;;;;;;;15.24;93.63;98772.78;5052643;28;20051;-66
2022/09/27 08:38:18;;;;;;;3.42;1.25;;;;;;;15.50;88.83;98769.09;5052971;28;20029;-65
2022/09/27 08:41:05;;;;;;;3.97;1.90;;;;;;;15.59;85.05;98773.81;5053101;28;20051;-65
2022/09/27 08:44:02;;;;;;;2.97;1.65;;;;;;;15.17;85.25;98776.84;5057510;28;20547;-64
2022/09/27 08:46:45;;;;;;;4.95;2.10;;;;;;;14.67;87.99;98770.63;5070506;28;20036;-65
2022/09/27 08:49:23;;;;;;;3.47;1.83;;;;;;;14.41;90.84;98767.06;5071642;28;20377;-65
2022/09/27 08:51:52;;;;;;;5.13;2.60;;;;;;;14.31;92.76;98768.66;5070088;28;20052;-65
2022/09/27 08:54:31;;;;;;;4.38;2.15;;;;;;;14.39;95.00;98771.66;5069106;28;20454;-65
2022/09/27 08:57:13;;;;;;;4.13;1.60;;;;;;;14.53;95.04;98760.88;5070558;28;20025;-65
2022/09/27 08:59:42;;;;;;;2.95;1.70;;;;;;;14.93;95.47;98757.16;5070248;28;20028;-65
2022/09/27 09:02:16;;;;;;;9.68;3.42;;;;;;;15.73;95.24;98754.88;5054621;28;20036;-64
2022/09/27 09:04:44;;;;;;;6.30;2.67;;;;;;;16.66;90.73;98763.03;5086827;28;20027;-65
2022/09/27 09:07:09;;;;;;;6.30;2.53;;;;;;;16.94;86.82;98756.34;5092182;28;20422;-65
2022/09/27 09:10:10;;;;;;;4.78;2.10;;;;;;;16.49;82.55;98744.66;5092782;28;20020;-64
2022/09/27 09:12:47;;;;;;;3.08;2.05;;;;;;;16.31;83.33;98755.94;5092704;28;20028;-64
2022/09/27 09:15:30;;;;;;;4.90;1.80;;;;;;;15.94;84.71;98751.59;5059789;28;20033;-65
2022/09/27 09:18:38;;;;;;;5.35;1.80;;;;;;;15.57;86.57;98751.63;5052623;28;20057;-64
2022/09/27 09:21:25;;;;;;;2.90;1.33;;;;;;;15.08;88.28;98744.50;5052167;28;20032;-65
2022/09/27 09:23:59;;;;;;;2.92;1.95;;;;;;;14.82;90.21;98743.66;5052301;28;20438;-64
2022/09/27 09:26:43;;;;;;;4.07;2.00;;;;;;;14.57;93.48;98738.28;5051982;28;20078;-65
2022/09/27 09:29:24;;;;;;;3.35;1.52;;;;;;;14.41;95.74;98740.31;5051075;28;20507;-65
2022/09/27 09:32:15;;;;;;;3.95;1.70;;;;;;;14.31;96.68;98741.91;5052421;28;20065;-65
2022/09/27 09:34:50;;;;;;;4.00;1.95;;;;;;;14.23;98.14;98733.50;5051314;28;20431;-64
2022/09/27 09:37:21;;;;;;;4.70;2.15;;;;;;;14.16;99.27;98737.56;5051948;28;20032;-64
2022/09/27 09:39:50;;;;;;;4.47;2.22;;;;;;;14.11;98.75;98729.84;5051809;28;20120;-65
2022/09/27 09:42:34;;;;;;;5.35;2.80;;;;;;;14.20;99.29;98729.22;5052076;28;20399;-65
2022/09/27 09:45:34;;;;;;;3.55;1.90;;;;;;;14.36;98.00;98723.72;5051907;28;20134;-65
2022/09/27 09:48:02;;;;;;;3.55;1.80;;;;;;;14.36;95.98;98731.75;5050105;28;20476;-65
2022/09/27 09:50:34;;;;;;;3.22;1.83;;;;;;;14.52;97.00;98724.38;5051634;28;20033;-65
2022/09/27 09:53:22;;;;;;;3.88;1.75;;;;;;;14.75;95.71;98718.28;5051670;28;20384;-65
2022/09/27 09:55:58;;;;;;;5.05;2.38;;;;;;;15.09;95.90;98698.03;5051347;28;20100;-65
2022/09/27 09:58:33;;;;;;;4.18;1.70;;;;;;;15.49;94.40;98707.56;5051519;28;20055;-65
2022/09/27 10:01:19;;;;;;;3.80;1.70;;;;;;;15.34;91.17;98725.59;5061876;28;20103;-66
2022/09/27 10:03:45;;;;;;;4.40;1.50;;;;;;;15.06;90.94;98717.84;5080453;28;20471;-65
2022/09/27 10:06:12;;;;;;;4.30;1.42;;;;;;;14.83;92.26;98723.09;5091399;28;20023;-64
2022/09/27 10:08:38;;;;;;;2.13;1.40;;;;;;;14.67;94.30;98707.25;5091760;28;20077;-65
2022/09/27 10:11:05;;;;;;;4.65;1.48;;;;;;;14.59;94.88;98714.97;5091796;28;20036;-64
2022/09/27 10:13:34;;;;;;;2.17;1.25;;;;;;;14.41;95.60;98711.72;5086959;28;20081;-65
2022/09/27 10:16:05;;;;;;;2.85;1.55;;;;;;;14.33;96.80;98698.03;5050939;28;20035;-64
2022/09/27 10:18:31;;;;;;;2.28;1.17;;;;;;;14.41;97.45;98713.56;5051466;28;20754;-65
2022/09/27 10:21:04;;;;;;;3.47;1.20;;;;;;;14.34;95.45;98698.88;5051726;28;20029;-65
2022/09/27 10:23:30;;;;;;;2.30;1.27;;;;;;;14.07;92.21;98706.06;5056650;28;20569;-64
2022/09/27 10:26:03;;;;;;;4.75;2.10;;;;;;;14.01;92.96;98701.16;5070751;28;20017;-64
2022/09/27 10:28:42;;;;;;;3.30;1.80;;;;;;;13.84;92.93;98704.06;5071108;28;20419;-65
2022/09/27 10:31:17;;;;;;;2.38;1.30;;;;;;;13.79;94.16;98707.06;5070471;28;20039;-65
2022/09/27 10:34:04;;;;;;;2.25;1.33;;;;;;;13.79;95.49;98698.22;5069339;28;20033;-66
2022/09/27 10:36:34;;;;;;;2.97;1.33;;;;;;;13.83;96.82;98710.38;5070162;28;20099;-64
2022/09/27 10:39:03;;;;;;;7.75;1.67;;;;;;;14.01;97.20;98711.84;5070789;28;20490;-64
2022/09/27 10:41:37;;;;;;;7.60;1.98;;;;;;;14.63;96.04;98716.44;5070938;28;20476;-65
2022/09/27 10:44:15;;;;;;;1.40;1.10;;;;;;;14.72;92.31;98710.47;5070805;28;20041;-65
2022/09/27 10:46:47;;;;;;;3.42;1.20;;;;;;;14.60;90.11;98711.31;5068046;28;20040;-65
2022/09/27 10:49:25;;;;;;;2.88;1.42;;;;;;;14.57;90.92;98702.66;5070894;28;20025;-64
2022/09/27 10:52:06;;;;;;;7.90;1.40;;;;;;;14.50;93.34;98705.75;5070687;28;20415;-64
2022/09/27 10:54:35;;;;;;;3.67;1.60;;;;;;;14.33;93.33;98707.88;5069965;28;20047;-64
2022/09/27 10:57:04;;;;;;;2.10;1.10;;;;;;;14.18;93.03;98708.91;5070315;28;20095;-64
2022/09/27 10:59:34;;;;;;;2.28;1.15;;;;;;;14.09;93.82;98717.53;5068549;28;20023;-64
2022/09/27 11:02:00;;;;;;;2.67;1.08;;;;;;;14.03;94.44;98709.94;5050682;28;20462;-65
2022/09/27 11:04:32;;;;;;;2.15;1.20;;;;;;;13.99;92.89;98709.28;5079436;28;20051;-64
2022/09/27 11:07:24;;;;;;;2.20;1.10;;;;;;;14.24;94.12;98719.16;5090244;28;20498;-65
2022/09/27 11:09:58;;;;;;;1.63;1.00;;;;;;;14.41;93.03;98721.59;5089744;28;20297;-64
2022/09/27 11:12:24;;;;;;;1.27;0.80;;;;;;;14.54;93.25;98727.81;5090525;28;20098;-64
2022/09/27 11:14:57;;;;;;;2.75;1.23;;;;;;;14.53;92.66;98731.44;5063888;28;20112;-64
2022/09/27 11:17:54;;;;;;;3.53;1.10;;;;;;;14.42;90.40;98717.94;5049757;28;20091;-65
2022/09/27 11:20:27;;;;;;;1.73;0.85;;;;;;;14.50;90.61;98728.97;5049775;28;20166;-64
2022/09/27 11:23:02;;;;;;;1.73;1.27;;;;;;;14.41;91.06;98716.25;5049630;28;20021;-64
2022/09/27 11:25:33;;;;;;;2.63;1.00;;;;;;;14.43;90.16;98714.31;5049810;28;20032;-64
2022/09/27 11:28:24;;;;;;;2.40;1.02;;;;;;;14.37;90.08;98704.03;5050011;28;20536;-64
2022/09/27 11:31:07;;;;;;;3.15;1.35;;;;;;;14.40;90.93;98698.47;5049813;28;20107;-64
2022/09/27 11:33:57;;;;;;;2.30;1.30;;;;;;;14.46;92.42;98701.56;5049768;28;20021;-64
2022/09/27 11:36:34;;;;;;;5.18;1.30;;;;;;;14.57;92.92;98700.84;5049678;28;20029;-64
2022/09/27 11:39:33;;;;;;;1.35;0.85;;;;;;;14.59;93.32;98693.56;5049532;28;20055;-64
2022/09/27 11:42:22;;;;;;;1.02;0.93;;;;;;;14.55;91.06;98697.41;5049467;28;20468;-64
2022/09/27 11:45:18;;;;;;;2.13;1.00;;;;;;;14.45;90.86;98688.28;5049528;28;20021;-64
2022/09/27 11:47:52;;;;;;;2.22;1.00;;;;;;;14.55;91.04;98691.22;5049495;28;20040;-65
2022/09/27 11:50:43;;;;;;;14.68;5.45;;;;;;;14.51;89.15;98663.81;5049317;28;20538;-63
2022/09/27 11:53:11;;;;;;;5.22;1.75;;;;;;;14.70;88.08;98661.53;5049647;28;20532;-64